sensor_id;sensor_type;location;lat;lon;timestamp;P1;durP1;ratioP1;P2;durP2;ratioP2
3052;SDS011;1536;51.098;6.414;2024-01-30T00:02:12;12.88;;;9.15;;
3052;SDS011;1536;51.098;6.414;2024-01-30T00:04:39;12.38;;;8.07;;
3052;SDS011;1536;51.098;6.414;2024-01-30T00:07:06;17.30;;;8.90;;
3052;SDS011;1536;51.098;6.414;2024-01-30T00:09:33;16.33;;;9.10;;
3052;SDS011;1536;51.098;6.414;2024-01-30T00:12:01;18.83;;;9.83;;
3052;SDS011;1536;51.098;6.414;2024-01-30T00:14:28;16.17;;;9.23;;
3052;SDS011;1536;51.098;6.414;2024-01-30T00:16:56;13.57;;;9.38;;
3052;SDS011;1536;51.098;6.414;2024-01-30T00:19:23;12.30;;;8.38;;
3052;SDS011;1536;51.098;6.414;2024-01-30T00:21:53;13.82;;;8.20;;
3052;SDS011;1536;51.098;6.414;2024-01-30T00:24:19;12.70;;;8.65;;
3052;SDS011;1536;51.098;6.414;2024-01-30T00:26:46;17.88;;;9.35;;
3052;SDS011;1536;51.098;6.414;2024-01-30T00:29:14;12.55;;;8.60;;
3052;SDS011;1536;51.098;6.414;2024-01-30T00:31:44;15.40;;;8.77;;
3052;SDS011;1536;51.098;6.414;2024-01-30T00:34:11;14.63;;;9.35;;
3052;SDS011;1536;51.098;6.414;2024-01-30T00:36:37;11.93;;;8.20;;
3052;SDS011;1536;51.098;6.414;2024-01-30T00:39:06;18.27;;;9.47;;
3052;SDS011;1536;51.098;6.414;2024-01-30T00:41:34;16.92;;;8.75;;
3052;SDS011;1536;51.098;6.414;2024-01-30T00:44:01;18.92;;;9.40;;
3052;SDS011;1536;51.098;6.414;2024-01-30T00:46:29;10.57;;;9.20;;
3052;SDS011;1536;51.098;6.414;2024-01-30T00:48:56;16.35;;;8.90;;
3052;SDS011;1536;51.098;6.414;2024-01-30T00:51:22;14.00;;;9.30;;
3052;SDS011;1536;51.098;6.414;2024-01-30T00:53:49;16.63;;;8.82;;
3052;SDS011;1536;51.098;6.414;2024-01-30T00:56:16;18.23;;;8.57;;
3052;SDS011;1536;51.098;6.414;2024-01-30T00:58:43;15.40;;;8.67;;
3052;SDS011;1536;51.098;6.414;2024-01-30T01:01:10;15.90;;;9.93;;
3052;SDS011;1536;51.098;6.414;2024-01-30T01:03:39;11.70;;;8.25;;
3052;SDS011;1536;51.098;6.414;2024-01-30T01:06:08;20.25;;;8.60;;
3052;SDS011;1536;51.098;6.414;2024-01-30T01:08:35;11.75;;;8.27;;
3052;SDS011;1536;51.098;6.414;2024-01-30T01:11:02;12.43;;;8.40;;
3052;SDS011;1536;51.098;6.414;2024-01-30T01:13:29;16.17;;;8.40;;
3052;SDS011;1536;51.098;6.414;2024-01-30T01:15:58;14.70;;;10.20;;
3052;SDS011;1536;51.098;6.414;2024-01-30T01:18:24;14.85;;;9.20;;
3052;SDS011;1536;51.098;6.414;2024-01-30T01:20:53;12.18;;;8.07;;
3052;SDS011;1536;51.098;6.414;2024-01-30T01:23:21;9.43;;;8.40;;
3052;SDS011;1536;51.098;6.414;2024-01-30T01:25:48;17.05;;;9.60;;
3052;SDS011;1536;51.098;6.414;2024-01-30T01:28:14;17.85;;;9.63;;
3052;SDS011;1536;51.098;6.414;2024-01-30T01:30:41;12.60;;;8.77;;
3052;SDS011;1536;51.098;6.414;2024-01-30T01:33:08;17.50;;;8.83;;
3052;SDS011;1536;51.098;6.414;2024-01-30T01:35:35;15.00;;;8.50;;
3052;SDS011;1536;51.098;6.414;2024-01-30T01:38:03;13.90;;;9.02;;
3052;SDS011;1536;51.098;6.414;2024-01-30T01:40:30;13.05;;;8.20;;
3052;SDS011;1536;51.098;6.414;2024-01-30T01:42:57;23.57;;;9.33;;
3052;SDS011;1536;51.098;6.414;2024-01-30T01:45:24;13.23;;;7.72;;
3052;SDS011;1536;51.098;6.414;2024-01-30T01:47:51;12.98;;;8.70;;
3052;SDS011;1536;51.098;6.414;2024-01-30T01:50:19;13.15;;;9.45;;
3052;SDS011;1536;51.098;6.414;2024-01-30T01:52:47;23.52;;;9.50;;
3052;SDS011;1536;51.098;6.414;2024-01-30T01:55:16;15.70;;;8.35;;
3052;SDS011;1536;51.098;6.414;2024-01-30T01:57:46;19.65;;;8.43;;
3052;SDS011;1536;51.098;6.414;2024-01-30T02:00:13;12.52;;;9.43;;
3052;SDS011;1536;51.098;6.414;2024-01-30T02:02:41;16.35;;;9.07;;
3052;SDS011;1536;51.098;6.414;2024-01-30T02:05:09;22.35;;;9.45;;
3052;SDS011;1536;51.098;6.414;2024-01-30T02:07:36;16.25;;;9.05;;
3052;SDS011;1536;51.098;6.414;2024-01-30T02:10:04;9.38;;;8.27;;
3052;SDS011;1536;51.098;6.414;2024-01-30T02:12:32;15.32;;;8.25;;
3052;SDS011;1536;51.098;6.414;2024-01-30T02:14:59;16.55;;;8.93;;
3052;SDS011;1536;51.098;6.414;2024-01-30T02:17:26;10.15;;;7.97;;
3052;SDS011;1536;51.098;6.414;2024-01-30T02:19:53;11.90;;;8.63;;
3052;SDS011;1536;51.098;6.414;2024-01-30T02:22:21;26.05;;;9.55;;
3052;SDS011;1536;51.098;6.414;2024-01-30T02:24:49;11.75;;;9.30;;
3052;SDS011;1536;51.098;6.414;2024-01-30T02:27:16;9.77;;;8.07;;
3052;SDS011;1536;51.098;6.414;2024-01-30T02:29:43;10.75;;;8.43;;
3052;SDS011;1536;51.098;6.414;2024-01-30T02:32:10;15.70;;;9.33;;
3052;SDS011;1536;51.098;6.414;2024-01-30T02:34:36;12.30;;;8.77;;
3052;SDS011;1536;51.098;6.414;2024-01-30T02:37:03;13.80;;;8.88;;
3052;SDS011;1536;51.098;6.414;2024-01-30T02:39:31;12.27;;;7.88;;
3052;SDS011;1536;51.098;6.414;2024-01-30T02:41:58;9.95;;;8.52;;
3052;SDS011;1536;51.098;6.414;2024-01-30T02:44:25;12.73;;;7.78;;
3052;SDS011;1536;51.098;6.414;2024-01-30T02:46:52;15.43;;;7.85;;
3052;SDS011;1536;51.098;6.414;2024-01-30T02:49:20;15.67;;;8.07;;
3052;SDS011;1536;51.098;6.414;2024-01-30T02:51:46;17.95;;;8.60;;
3052;SDS011;1536;51.098;6.414;2024-01-30T02:54:13;14.13;;;7.77;;
3052;SDS011;1536;51.098;6.414;2024-01-30T02:56:41;10.60;;;7.73;;
3052;SDS011;1536;51.098;6.414;2024-01-30T02:59:08;13.20;;;8.80;;
3052;SDS011;1536;51.098;6.414;2024-01-30T03:01:42;11.60;;;8.63;;
3052;SDS011;1536;51.098;6.414;2024-01-30T03:04:09;14.63;;;10.15;;
3052;SDS011;1536;51.098;6.414;2024-01-30T03:06:36;15.75;;;8.10;;
3052;SDS011;1536;51.098;6.414;2024-01-30T03:09:02;17.73;;;8.50;;
3052;SDS011;1536;51.098;6.414;2024-01-30T03:11:29;16.77;;;8.98;;
3052;SDS011;1536;51.098;6.414;2024-01-30T03:13:58;12.98;;;8.35;;
3052;SDS011;1536;51.098;6.414;2024-01-30T03:16:25;12.38;;;8.80;;
3052;SDS011;1536;51.098;6.414;2024-01-30T03:18:51;16.10;;;8.70;;
3052;SDS011;1536;51.098;6.414;2024-01-30T03:21:18;10.10;;;7.57;;
3052;SDS011;1536;51.098;6.414;2024-01-30T03:23:45;12.23;;;8.15;;
3052;SDS011;1536;51.098;6.414;2024-01-30T03:26:12;14.05;;;7.50;;
3052;SDS011;1536;51.098;6.414;2024-01-30T03:28:39;8.65;;;7.03;;
3052;SDS011;1536;51.098;6.414;2024-01-30T03:31:07;15.60;;;7.63;;
3052;SDS011;1536;51.098;6.414;2024-01-30T03:33:35;10.52;;;7.07;;
3052;SDS011;1536;51.098;6.414;2024-01-30T03:36:03;11.80;;;7.28;;
3052;SDS011;1536;51.098;6.414;2024-01-30T03:38:31;12.57;;;8.43;;
3052;SDS011;1536;51.098;6.414;2024-01-30T03:40:58;15.23;;;6.85;;
3052;SDS011;1536;51.098;6.414;2024-01-30T03:43:25;10.50;;;8.17;;
3052;SDS011;1536;51.098;6.414;2024-01-30T03:45:52;11.55;;;7.82;;
3052;SDS011;1536;51.098;6.414;2024-01-30T03:48:21;14.23;;;8.10;;
3052;SDS011;1536;51.098;6.414;2024-01-30T03:50:48;10.82;;;7.15;;
3052;SDS011;1536;51.098;6.414;2024-01-30T03:53:15;15.07;;;7.95;;
3052;SDS011;1536;51.098;6.414;2024-01-30T03:55:41;10.40;;;8.30;;
3052;SDS011;1536;51.098;6.414;2024-01-30T03:58:08;9.60;;;7.25;;
3052;SDS011;1536;51.098;6.414;2024-01-30T04:00:35;15.02;;;7.18;;
3052;SDS011;1536;51.098;6.414;2024-01-30T04:03:02;10.80;;;6.93;;
3052;SDS011;1536;51.098;6.414;2024-01-30T04:05:31;13.57;;;8.18;;
3052;SDS011;1536;51.098;6.414;2024-01-30T04:07:59;11.45;;;7.10;;
3052;SDS011;1536;51.098;6.414;2024-01-30T04:10:26;16.15;;;8.73;;
3052;SDS011;1536;51.098;6.414;2024-01-30T04:12:53;12.57;;;7.68;;
3052;SDS011;1536;51.098;6.414;2024-01-30T04:15:20;18.20;;;7.95;;
3052;SDS011;1536;51.098;6.414;2024-01-30T04:17:47;12.50;;;7.63;;
3052;SDS011;1536;51.098;6.414;2024-01-30T04:20:14;9.60;;;6.97;;
3052;SDS011;1536;51.098;6.414;2024-01-30T04:22:43;12.37;;;8.63;;
3052;SDS011;1536;51.098;6.414;2024-01-30T04:25:10;12.05;;;7.70;;
3052;SDS011;1536;51.098;6.414;2024-01-30T04:27:37;12.32;;;7.57;;
3052;SDS011;1536;51.098;6.414;2024-01-30T04:30:05;10.98;;;8.20;;
3052;SDS011;1536;51.098;6.414;2024-01-30T04:32:35;10.05;;;7.28;;
3052;SDS011;1536;51.098;6.414;2024-01-30T04:35:02;12.93;;;7.90;;
3052;SDS011;1536;51.098;6.414;2024-01-30T04:37:29;10.35;;;6.88;;
3052;SDS011;1536;51.098;6.414;2024-01-30T04:39:58;11.25;;;7.20;;
3052;SDS011;1536;51.098;6.414;2024-01-30T04:42:25;10.07;;;7.05;;
3052;SDS011;1536;51.098;6.414;2024-01-30T04:44:53;8.98;;;7.20;;
3052;SDS011;1536;51.098;6.414;2024-01-30T04:47:20;13.15;;;7.90;;
3052;SDS011;1536;51.098;6.414;2024-01-30T04:49:47;10.73;;;7.28;;
3052;SDS011;1536;51.098;6.414;2024-01-30T04:52:13;12.27;;;7.65;;
3052;SDS011;1536;51.098;6.414;2024-01-30T04:54:40;8.82;;;6.95;;
3052;SDS011;1536;51.098;6.414;2024-01-30T04:57:09;10.02;;;7.25;;
3052;SDS011;1536;51.098;6.414;2024-01-30T04:59:37;10.40;;;7.47;;
3052;SDS011;1536;51.098;6.414;2024-01-30T05:02:04;12.45;;;6.82;;
3052;SDS011;1536;51.098;6.414;2024-01-30T05:04:31;10.05;;;7.75;;
3052;SDS011;1536;51.098;6.414;2024-01-30T05:06:57;9.68;;;6.30;;
3052;SDS011;1536;51.098;6.414;2024-01-30T05:09:24;9.88;;;8.32;;
3052;SDS011;1536;51.098;6.414;2024-01-30T05:11:51;9.48;;;6.47;;
3052;SDS011;1536;51.098;6.414;2024-01-30T05:14:19;11.35;;;7.32;;
3052;SDS011;1536;51.098;6.414;2024-01-30T05:16:46;11.10;;;7.03;;
3052;SDS011;1536;51.098;6.414;2024-01-30T05:19:13;14.68;;;8.02;;
3052;SDS011;1536;51.098;6.414;2024-01-30T05:21:40;14.02;;;7.13;;
3052;SDS011;1536;51.098;6.414;2024-01-30T05:24:07;9.88;;;7.20;;
3052;SDS011;1536;51.098;6.414;2024-01-30T05:26:35;12.35;;;8.13;;
3052;SDS011;1536;51.098;6.414;2024-01-30T05:29:02;9.50;;;7.63;;
3052;SDS011;1536;51.098;6.414;2024-01-30T05:31:30;8.55;;;6.82;;
3052;SDS011;1536;51.098;6.414;2024-01-30T05:33:57;13.05;;;7.72;;
3052;SDS011;1536;51.098;6.414;2024-01-30T05:36:23;10.10;;;7.68;;
3052;SDS011;1536;51.098;6.414;2024-01-30T05:38:50;14.07;;;7.20;;
3052;SDS011;1536;51.098;6.414;2024-01-30T05:41:18;13.50;;;7.55;;
3052;SDS011;1536;51.098;6.414;2024-01-30T05:43:46;9.93;;;7.32;;
3052;SDS011;1536;51.098;6.414;2024-01-30T05:46:14;12.23;;;8.23;;
3052;SDS011;1536;51.098;6.414;2024-01-30T05:48:42;13.60;;;7.95;;
3052;SDS011;1536;51.098;6.414;2024-01-30T05:51:09;9.88;;;6.57;;
3052;SDS011;1536;51.098;6.414;2024-01-30T05:53:35;11.50;;;7.80;;
3052;SDS011;1536;51.098;6.414;2024-01-30T05:56:03;18.05;;;7.55;;
3052;SDS011;1536;51.098;6.414;2024-01-30T05:58:30;20.55;;;8.00;;
3052;SDS011;1536;51.098;6.414;2024-01-30T06:00:57;12.40;;;7.80;;
3052;SDS011;1536;51.098;6.414;2024-01-30T06:03:25;16.95;;;7.95;;
3052;SDS011;1536;51.098;6.414;2024-01-30T06:05:53;11.07;;;7.25;;
3052;SDS011;1536;51.098;6.414;2024-01-30T06:08:19;14.23;;;7.10;;
3052;SDS011;1536;51.098;6.414;2024-01-30T06:10:46;11.07;;;7.13;;
3052;SDS011;1536;51.098;6.414;2024-01-30T06:13:14;10.52;;;7.22;;
3052;SDS011;1536;51.098;6.414;2024-01-30T06:15:42;14.90;;;8.48;;
3052;SDS011;1536;51.098;6.414;2024-01-30T06:18:09;10.48;;;7.35;;
3052;SDS011;1536;51.098;6.414;2024-01-30T06:20:36;16.85;;;7.50;;
3052;SDS011;1536;51.098;6.414;2024-01-30T06:23:04;12.38;;;7.57;;
3052;SDS011;1536;51.098;6.414;2024-01-30T06:25:31;9.93;;;7.60;;
3052;SDS011;1536;51.098;6.414;2024-01-30T06:27:58;13.32;;;7.28;;
3052;SDS011;1536;51.098;6.414;2024-01-30T06:30:24;16.77;;;7.75;;
3052;SDS011;1536;51.098;6.414;2024-01-30T06:32:51;11.73;;;7.15;;
3052;SDS011;1536;51.098;6.414;2024-01-30T06:35:18;12.52;;;7.57;;
3052;SDS011;1536;51.098;6.414;2024-01-30T06:37:45;11.38;;;6.88;;
3052;SDS011;1536;51.098;6.414;2024-01-30T06:40:13;10.02;;;6.97;;
3052;SDS011;1536;51.098;6.414;2024-01-30T06:42:40;14.30;;;8.47;;
3052;SDS011;1536;51.098;6.414;2024-01-30T06:45:07;10.15;;;6.88;;
3052;SDS011;1536;51.098;6.414;2024-01-30T06:47:34;15.65;;;7.88;;
3052;SDS011;1536;51.098;6.414;2024-01-30T06:50:01;13.50;;;7.80;;
3052;SDS011;1536;51.098;6.414;2024-01-30T06:52:28;13.90;;;8.50;;
3052;SDS011;1536;51.098;6.414;2024-01-30T06:54:55;14.45;;;7.25;;
3052;SDS011;1536;51.098;6.414;2024-01-30T06:57:23;13.02;;;6.63;;
3052;SDS011;1536;51.098;6.414;2024-01-30T06:59:52;12.75;;;7.18;;
3052;SDS011;1536;51.098;6.414;2024-01-30T07:02:21;11.80;;;7.35;;
3052;SDS011;1536;51.098;6.414;2024-01-30T07:04:49;17.27;;;7.43;;
3052;SDS011;1536;51.098;6.414;2024-01-30T07:07:16;8.97;;;6.60;;
3052;SDS011;1536;51.098;6.414;2024-01-30T07:09:43;13.87;;;7.90;;
3052;SDS011;1536;51.098;6.414;2024-01-30T07:12:10;9.27;;;7.60;;
3052;SDS011;1536;51.098;6.414;2024-01-30T07:14:38;11.67;;;6.63;;
3052;SDS011;1536;51.098;6.414;2024-01-30T07:17:05;13.18;;;6.95;;
3052;SDS011;1536;51.098;6.414;2024-01-30T07:19:32;10.52;;;6.53;;
3052;SDS011;1536;51.098;6.414;2024-01-30T07:21:59;13.27;;;6.72;;
3052;SDS011;1536;51.098;6.414;2024-01-30T07:24:26;13.50;;;6.53;;
3052;SDS011;1536;51.098;6.414;2024-01-30T07:26:53;11.48;;;7.05;;
3052;SDS011;1536;51.098;6.414;2024-01-30T07:29:20;15.13;;;8.05;;
3052;SDS011;1536;51.098;6.414;2024-01-30T07:31:48;14.82;;;7.80;;
3052;SDS011;1536;51.098;6.414;2024-01-30T07:34:15;9.55;;;7.03;;
3052;SDS011;1536;51.098;6.414;2024-01-30T07:36:42;12.32;;;6.97;;
3052;SDS011;1536;51.098;6.414;2024-01-30T07:39:09;7.73;;;5.97;;
3052;SDS011;1536;51.098;6.414;2024-01-30T07:41:36;14.48;;;7.53;;
3052;SDS011;1536;51.098;6.414;2024-01-30T07:44:03;9.68;;;6.88;;
3052;SDS011;1536;51.098;6.414;2024-01-30T07:46:30;11.73;;;8.10;;
3052;SDS011;1536;51.098;6.414;2024-01-30T07:48:58;12.90;;;7.87;;
3052;SDS011;1536;51.098;6.414;2024-01-30T07:51:25;12.25;;;6.97;;
3052;SDS011;1536;51.098;6.414;2024-01-30T07:53:53;13.35;;;7.00;;
3052;SDS011;1536;51.098;6.414;2024-01-30T07:56:20;12.13;;;6.20;;
3052;SDS011;1536;51.098;6.414;2024-01-30T07:58:47;9.00;;;7.32;;
3052;SDS011;1536;51.098;6.414;2024-01-30T08:01:14;13.23;;;7.27;;
3052;SDS011;1536;51.098;6.414;2024-01-30T08:03:41;10.48;;;7.05;;
3052;SDS011;1536;51.098;6.414;2024-01-30T08:06:09;13.15;;;7.55;;
3052;SDS011;1536;51.098;6.414;2024-01-30T08:08:36;11.82;;;6.63;;
3052;SDS011;1536;51.098;6.414;2024-01-30T08:11:03;12.07;;;7.30;;
3052;SDS011;1536;51.098;6.414;2024-01-30T08:13:30;16.88;;;7.45;;
3052;SDS011;1536;51.098;6.414;2024-01-30T08:15:57;11.85;;;7.07;;
3052;SDS011;1536;51.098;6.414;2024-01-30T08:18:24;8.00;;;7.18;;
3052;SDS011;1536;51.098;6.414;2024-01-30T08:20:51;13.03;;;7.67;;
3052;SDS011;1536;51.098;6.414;2024-01-30T08:23:19;13.35;;;6.78;;
3052;SDS011;1536;51.098;6.414;2024-01-30T08:25:46;12.77;;;6.45;;
3052;SDS011;1536;51.098;6.414;2024-01-30T08:28:13;10.38;;;6.95;;
3052;SDS011;1536;51.098;6.414;2024-01-30T08:30:40;16.17;;;8.80;;
3052;SDS011;1536;51.098;6.414;2024-01-30T08:33:07;10.50;;;8.10;;
3052;SDS011;1536;51.098;6.414;2024-01-30T08:35:33;9.57;;;6.70;;
3052;SDS011;1536;51.098;6.414;2024-01-30T08:38:00;9.80;;;6.67;;
3052;SDS011;1536;51.098;6.414;2024-01-30T08:40:29;15.13;;;7.93;;
3052;SDS011;1536;51.098;6.414;2024-01-30T08:42:56;10.10;;;7.30;;
3052;SDS011;1536;51.098;6.414;2024-01-30T08:45:23;8.33;;;6.70;;
3052;SDS011;1536;51.098;6.414;2024-01-30T08:47:50;11.45;;;8.20;;
3052;SDS011;1536;51.098;6.414;2024-01-30T08:50:16;9.65;;;7.03;;
3052;SDS011;1536;51.098;6.414;2024-01-30T08:52:43;8.45;;;7.07;;
3052;SDS011;1536;51.098;6.414;2024-01-30T08:55:10;9.95;;;7.25;;
3052;SDS011;1536;51.098;6.414;2024-01-30T08:57:38;16.10;;;7.25;;
3052;SDS011;1536;51.098;6.414;2024-01-30T09:00:05;10.38;;;7.20;;
3052;SDS011;1536;51.098;6.414;2024-01-30T09:02:34;8.77;;;7.63;;
3052;SDS011;1536;51.098;6.414;2024-01-30T09:05:01;11.30;;;7.97;;
3052;SDS011;1536;51.098;6.414;2024-01-30T09:07:28;7.80;;;6.75;;
3052;SDS011;1536;51.098;6.414;2024-01-30T09:09:56;10.77;;;7.60;;
3052;SDS011;1536;51.098;6.414;2024-01-30T09:12:23;9.18;;;7.45;;
3052;SDS011;1536;51.098;6.414;2024-01-30T09:14:51;10.90;;;8.02;;
3052;SDS011;1536;51.098;6.414;2024-01-30T09:17:18;11.73;;;6.70;;
3052;SDS011;1536;51.098;6.414;2024-01-30T09:19:45;8.80;;;7.30;;
3052;SDS011;1536;51.098;6.414;2024-01-30T09:22:12;11.63;;;7.28;;
3052;SDS011;1536;51.098;6.414;2024-01-30T09:24:39;15.05;;;8.10;;
3052;SDS011;1536;51.098;6.414;2024-01-30T09:27:06;10.73;;;7.82;;
3052;SDS011;1536;51.098;6.414;2024-01-30T09:29:33;22.73;;;8.90;;
3052;SDS011;1536;51.098;6.414;2024-01-30T09:32:03;16.25;;;7.35;;
3052;SDS011;1536;51.098;6.414;2024-01-30T09:34:30;10.93;;;8.80;;
3052;SDS011;1536;51.098;6.414;2024-01-30T09:36:57;10.20;;;6.45;;
3052;SDS011;1536;51.098;6.414;2024-01-30T09:39:25;10.30;;;7.35;;
3052;SDS011;1536;51.098;6.414;2024-01-30T09:41:54;14.83;;;7.53;;
3052;SDS011;1536;51.098;6.414;2024-01-30T09:44:28;8.43;;;7.53;;
3052;SDS011;1536;51.098;6.414;2024-01-30T09:46:55;9.75;;;7.65;;
3052;SDS011;1536;51.098;6.414;2024-01-30T09:49:25;10.20;;;8.60;;
3052;SDS011;1536;51.098;6.414;2024-01-30T09:51:52;9.77;;;7.85;;
3052;SDS011;1536;51.098;6.414;2024-01-30T09:54:20;13.07;;;7.83;;
3052;SDS011;1536;51.098;6.414;2024-01-30T09:56:48;8.27;;;7.20;;
3052;SDS011;1536;51.098;6.414;2024-01-30T09:59:15;13.47;;;8.40;;
3052;SDS011;1536;51.098;6.414;2024-01-30T10:01:42;10.77;;;8.17;;
3052;SDS011;1536;51.098;6.414;2024-01-30T10:04:09;13.63;;;8.17;;
3052;SDS011;1536;51.098;6.414;2024-01-30T10:06:37;9.20;;;7.30;;
3052;SDS011;1536;51.098;6.414;2024-01-30T10:09:06;13.17;;;7.90;;
3052;SDS011;1536;51.098;6.414;2024-01-30T10:11:33;10.30;;;7.00;;
3052;SDS011;1536;51.098;6.414;2024-01-30T10:14:00;12.47;;;7.23;;
3052;SDS011;1536;51.098;6.414;2024-01-30T10:16:27;11.43;;;7.57;;
3052;SDS011;1536;51.098;6.414;2024-01-30T10:18:54;8.63;;;7.30;;
3052;SDS011;1536;51.098;6.414;2024-01-30T10:21:21;7.80;;;6.90;;
3052;SDS011;1536;51.098;6.414;2024-01-30T10:23:52;10.27;;;7.73;;
3052;SDS011;1536;51.098;6.414;2024-01-30T10:26:19;8.87;;;7.40;;
3052;SDS011;1536;51.098;6.414;2024-01-30T10:28:47;8.20;;;6.80;;
3052;SDS011;1536;51.098;6.414;2024-01-30T10:31:16;14.00;;;7.10;;
3052;SDS011;1536;51.098;6.414;2024-01-30T10:33:43;11.50;;;7.60;;
3052;SDS011;1536;51.098;6.414;2024-01-30T10:36:10;11.43;;;7.07;;
3052;SDS011;1536;51.098;6.414;2024-01-30T10:38:42;7.73;;;6.40;;
3052;SDS011;1536;51.098;6.414;2024-01-30T10:41:13;15.93;;;6.47;;
3052;SDS011;1536;51.098;6.414;2024-01-30T10:43:47;12.03;;;5.77;;
3052;SDS011;1536;51.098;6.414;2024-01-30T10:46:23;9.27;;;6.50;;
3052;SDS011;1536;51.098;6.414;2024-01-30T10:48:56;11.50;;;6.20;;
3052;SDS011;1536;51.098;6.414;2024-01-30T10:51:24;8.03;;;5.73;;
3052;SDS011;1536;51.098;6.414;2024-01-30T10:53:52;8.03;;;5.37;;
3052;SDS011;1536;51.098;6.414;2024-01-30T10:56:21;8.90;;;5.60;;
3052;SDS011;1536;51.098;6.414;2024-01-30T10:58:49;8.43;;;5.20;;
3052;SDS011;1536;51.098;6.414;2024-01-30T11:01:17;7.17;;;5.20;;
3052;SDS011;1536;51.098;6.414;2024-01-30T11:03:47;13.43;;;6.00;;
3052;SDS011;1536;51.098;6.414;2024-01-30T11:06:14;9.33;;;6.10;;
3052;SDS011;1536;51.098;6.414;2024-01-30T11:08:43;10.43;;;5.50;;
3052;SDS011;1536;51.098;6.414;2024-01-30T11:11:10;7.27;;;5.70;;
3052;SDS011;1536;51.098;6.414;2024-01-30T11:13:39;12.73;;;6.50;;
3052;SDS011;1536;51.098;6.414;2024-01-30T11:16:06;13.10;;;6.53;;
3052;SDS011;1536;51.098;6.414;2024-01-30T11:18:33;8.30;;;5.90;;
3052;SDS011;1536;51.098;6.414;2024-01-30T11:21:04;8.70;;;5.97;;
3052;SDS011;1536;51.098;6.414;2024-01-30T11:23:33;11.10;;;6.00;;
3052;SDS011;1536;51.098;6.414;2024-01-30T11:26:00;9.40;;;5.93;;
3052;SDS011;1536;51.098;6.414;2024-01-30T11:28:31;9.30;;;5.97;;
3052;SDS011;1536;51.098;6.414;2024-01-30T11:31:04;11.23;;;5.80;;
3052;SDS011;1536;51.098;6.414;2024-01-30T11:33:32;11.50;;;6.07;;
3052;SDS011;1536;51.098;6.414;2024-01-30T11:35:59;11.27;;;6.37;;
3052;SDS011;1536;51.098;6.414;2024-01-30T11:38:28;7.90;;;5.70;;
3052;SDS011;1536;51.098;6.414;2024-01-30T11:40:55;6.80;;;5.10;;
3052;SDS011;1536;51.098;6.414;2024-01-30T11:43:23;12.33;;;5.80;;
3052;SDS011;1536;51.098;6.414;2024-01-30T11:45:50;13.23;;;5.90;;
3052;SDS011;1536;51.098;6.414;2024-01-30T11:48:18;9.90;;;6.03;;
3052;SDS011;1536;51.098;6.414;2024-01-30T11:50:45;12.67;;;6.90;;
3052;SDS011;1536;51.098;6.414;2024-01-30T11:53:12;14.87;;;6.57;;
3052;SDS011;1536;51.098;6.414;2024-01-30T11:55:39;13.30;;;5.97;;
3052;SDS011;1536;51.098;6.414;2024-01-30T11:58:06;16.33;;;8.73;;
3052;SDS011;1536;51.098;6.414;2024-01-30T12:00:32;12.53;;;7.20;;
3052;SDS011;1536;51.098;6.414;2024-01-30T12:02:59;10.33;;;7.33;;
3052;SDS011;1536;51.098;6.414;2024-01-30T12:05:28;15.57;;;7.57;;
3052;SDS011;1536;51.098;6.414;2024-01-30T12:07:55;14.20;;;6.50;;
3052;SDS011;1536;51.098;6.414;2024-01-30T12:10:24;9.80;;;6.90;;
3052;SDS011;1536;51.098;6.414;2024-01-30T12:12:52;9.80;;;6.20;;
3052;SDS011;1536;51.098;6.414;2024-01-30T12:15:21;9.43;;;6.70;;
3052;SDS011;1536;51.098;6.414;2024-01-30T12:17:49;8.30;;;6.33;;
3052;SDS011;1536;51.098;6.414;2024-01-30T12:20:17;10.50;;;7.20;;
3052;SDS011;1536;51.098;6.414;2024-01-30T12:22:48;8.27;;;6.80;;
3052;SDS011;1536;51.098;6.414;2024-01-30T12:25:16;13.80;;;6.30;;
3052;SDS011;1536;51.098;6.414;2024-01-30T12:27:44;10.00;;;6.13;;
3052;SDS011;1536;51.098;6.414;2024-01-30T12:30:15;14.43;;;7.97;;
3052;SDS011;1536;51.098;6.414;2024-01-30T12:32:43;12.73;;;6.40;;
3052;SDS011;1536;51.098;6.414;2024-01-30T12:35:11;11.50;;;7.33;;
3052;SDS011;1536;51.098;6.414;2024-01-30T12:37:38;11.63;;;6.73;;
3052;SDS011;1536;51.098;6.414;2024-01-30T12:40:10;9.50;;;6.57;;
3052;SDS011;1536;51.098;6.414;2024-01-30T12:42:39;11.80;;;6.80;;
3052;SDS011;1536;51.098;6.414;2024-01-30T12:45:07;12.33;;;8.13;;
3052;SDS011;1536;51.098;6.414;2024-01-30T12:47:34;10.30;;;7.40;;
3052;SDS011;1536;51.098;6.414;2024-01-30T12:50:01;9.30;;;7.97;;
3052;SDS011;1536;51.098;6.414;2024-01-30T12:52:28;11.47;;;7.30;;
3052;SDS011;1536;51.098;6.414;2024-01-30T12:54:55;10.23;;;7.80;;
3052;SDS011;1536;51.098;6.414;2024-01-30T12:57:23;9.03;;;7.13;;
3052;SDS011;1536;51.098;6.414;2024-01-30T12:59:50;11.77;;;7.97;;
3052;SDS011;1536;51.098;6.414;2024-01-30T13:02:17;9.83;;;8.10;;
3052;SDS011;1536;51.098;6.414;2024-01-30T13:04:44;11.50;;;8.13;;
3052;SDS011;1536;51.098;6.414;2024-01-30T13:07:10;14.40;;;8.23;;
3052;SDS011;1536;51.098;6.414;2024-01-30T13:09:40;10.27;;;7.40;;
3052;SDS011;1536;51.098;6.414;2024-01-30T13:12:06;13.47;;;8.17;;
3052;SDS011;1536;51.098;6.414;2024-01-30T13:14:34;14.00;;;7.63;;
3052;SDS011;1536;51.098;6.414;2024-01-30T13:17:01;10.00;;;7.60;;
3052;SDS011;1536;51.098;6.414;2024-01-30T13:19:28;13.93;;;7.50;;
3052;SDS011;1536;51.098;6.414;2024-01-30T13:21:55;11.87;;;7.03;;
3052;SDS011;1536;51.098;6.414;2024-01-30T13:24:22;10.40;;;8.20;;
3052;SDS011;1536;51.098;6.414;2024-01-30T13:26:49;10.10;;;7.93;;
3052;SDS011;1536;51.098;6.414;2024-01-30T13:29:16;13.63;;;7.90;;
3052;SDS011;1536;51.098;6.414;2024-01-30T13:31:44;9.57;;;8.37;;
3052;SDS011;1536;51.098;6.414;2024-01-30T13:34:11;13.50;;;8.57;;
3052;SDS011;1536;51.098;6.414;2024-01-30T13:36:38;11.37;;;7.20;;
3052;SDS011;1536;51.098;6.414;2024-01-30T13:39:05;11.57;;;7.27;;
3052;SDS011;1536;51.098;6.414;2024-01-30T13:41:35;9.23;;;7.53;;
3052;SDS011;1536;51.098;6.414;2024-01-30T13:44:01;12.07;;;7.90;;
3052;SDS011;1536;51.098;6.414;2024-01-30T13:46:29;11.47;;;7.67;;
3052;SDS011;1536;51.098;6.414;2024-01-30T13:48:57;14.60;;;7.60;;
3052;SDS011;1536;51.098;6.414;2024-01-30T13:51:24;12.47;;;8.70;;
3052;SDS011;1536;51.098;6.414;2024-01-30T13:53:52;13.77;;;8.10;;
3052;SDS011;1536;51.098;6.414;2024-01-30T13:56:19;13.10;;;8.97;;
3052;SDS011;1536;51.098;6.414;2024-01-30T13:58:46;10.30;;;8.57;;
3052;SDS011;1536;51.098;6.414;2024-01-30T14:01:14;11.63;;;8.77;;
3052;SDS011;1536;51.098;6.414;2024-01-30T14:03:41;16.03;;;8.43;;
3052;SDS011;1536;51.098;6.414;2024-01-30T14:06:09;9.53;;;7.30;;
3052;SDS011;1536;51.098;6.414;2024-01-30T14:08:36;9.70;;;7.10;;
3052;SDS011;1536;51.098;6.414;2024-01-30T14:11:03;21.70;;;8.80;;
3052;SDS011;1536;51.098;6.414;2024-01-30T14:13:30;10.50;;;7.93;;
3052;SDS011;1536;51.098;6.414;2024-01-30T14:15:57;12.17;;;7.97;;
3052;SDS011;1536;51.098;6.414;2024-01-30T14:18:26;10.57;;;7.40;;
3052;SDS011;1536;51.098;6.414;2024-01-30T14:20:52;7.93;;;6.50;;
3052;SDS011;1536;51.098;6.414;2024-01-30T14:23:21;12.30;;;7.83;;
3052;SDS011;1536;51.098;6.414;2024-01-30T14:25:47;10.63;;;6.70;;
3052;SDS011;1536;51.098;6.414;2024-01-30T14:28:16;10.33;;;7.73;;
3052;SDS011;1536;51.098;6.414;2024-01-30T14:30:43;8.10;;;6.43;;
3052;SDS011;1536;51.098;6.414;2024-01-30T14:33:10;10.77;;;8.33;;
3052;SDS011;1536;51.098;6.414;2024-01-30T14:35:36;10.37;;;7.07;;
3052;SDS011;1536;51.098;6.414;2024-01-30T14:38:03;12.83;;;8.27;;
3052;SDS011;1536;51.098;6.414;2024-01-30T14:40:33;11.70;;;8.50;;
3052;SDS011;1536;51.098;6.414;2024-01-30T14:43:00;9.70;;;7.10;;
3052;SDS011;1536;51.098;6.414;2024-01-30T14:45:28;9.17;;;7.10;;
3052;SDS011;1536;51.098;6.414;2024-01-30T14:47:57;7.67;;;6.80;;
3052;SDS011;1536;51.098;6.414;2024-01-30T14:50:24;8.93;;;7.10;;
3052;SDS011;1536;51.098;6.414;2024-01-30T14:52:52;11.63;;;6.57;;
3052;SDS011;1536;51.098;6.414;2024-01-30T14:55:18;9.27;;;5.83;;
3052;SDS011;1536;51.098;6.414;2024-01-30T14:57:46;12.83;;;6.00;;
3052;SDS011;1536;51.098;6.414;2024-01-30T15:00:14;8.90;;;5.00;;
3052;SDS011;1536;51.098;6.414;2024-01-30T15:02:42;9.37;;;6.80;;
3052;SDS011;1536;51.098;6.414;2024-01-30T15:05:09;8.90;;;4.60;;
3052;SDS011;1536;51.098;6.414;2024-01-30T15:07:37;4.63;;;4.13;;